createdAt,value
2022-11-24T04:41:24.098Z,99535.41
2022-11-24T04:44:27.557Z,99535.41
2022-11-24T04:47:30.049Z,99534.50
2022-11-24T04:50:37.133Z,99544.22
2022-11-24T04:53:39.624Z,99540.97
2022-11-24T04:56:43.872Z,99539.25
2022-11-24T04:59:46.467Z,99540.38
2022-11-24T05:02:49.251Z,99550.72
2022-11-24T05:05:51.695Z,99564.56
2022-11-24T05:08:54.528Z,99564.81
2022-11-24T05:11:57.196Z,99574.16
2022-11-24T05:15:01.533Z,99582.94
2022-11-24T05:18:09.397Z,99577.56
2022-11-24T05:21:12.572Z,99581.78
2022-11-24T05:24:15.069Z,99585.12
2022-11-24T05:27:17.850Z,99588.53
2022-11-24T05:30:20.378Z,99581.97
2022-11-24T05:33:23.149Z,99588.59
2022-11-24T05:36:44.890Z,99593.69
2022-11-24T05:39:47.854Z,99588.41
2022-11-24T05:42:50.334Z,99604.94
2022-11-24T05:45:53.304Z,99603.72
2022-11-24T05:48:55.892Z,99607.38
2022-11-24T05:51:58.752Z,99609.78
2022-11-24T05:55:01.240Z,99616.66
2022-11-24T05:58:06.424Z,99617.59
2022-11-24T06:01:09.005Z,99613.37
2022-11-24T06:04:11.774Z,99618.34
2022-11-24T06:07:14.821Z,99615.59
2022-11-24T06:10:19.413Z,99613.88
2022-11-24T06:13:21.964Z,99621.59
2022-11-24T06:16:24.851Z,99617.94
2022-11-24T06:19:27.597Z,99626.13
2022-11-24T06:22:30.801Z,99632.75
2022-11-24T06:25:33.160Z,99635.47
2022-11-24T06:28:36.268Z,99636.53
2022-11-24T06:31:38.845Z,99651.03
2022-11-24T06:34:41.757Z,99648.91
2022-11-24T06:37:45.777Z,99652.59
2022-11-24T06:40:48.690Z,99657.53
2022-11-24T06:43:51.158Z,99653.88
2022-11-24T06:46:54.002Z,99658.87
2022-11-24T06:49:56.695Z,99663.97
2022-11-24T06:52:59.391Z,99671.69
2022-11-24T06:56:02.603Z,99661.84
2022-11-24T06:59:05.536Z,99678.63
2022-11-24T07:02:10.230Z,99687.97
2022-11-24T07:05:16.071Z,99696.72
2022-11-24T07:08:18.679Z,99700.50
2022-11-24T07:11:23.661Z,99695.22
2022-11-24T07:14:27.011Z,99692.97
2022-11-24T07:17:29.895Z,99704.69
2022-11-24T07:20:32.611Z,99699.34
2022-11-24T07:23:35.511Z,99710.47
2022-11-24T07:26:38.068Z,99714.31
2022-11-24T07:29:40.862Z,99716.72
2022-11-24T07:32:43.357Z,99719.06
2022-11-24T07:35:46.187Z,99721.28
2022-11-24T07:38:49.083Z,99720.84
2022-11-24T07:41:51.842Z,99727.69
2022-11-24T07:44:54.382Z,99727.69
2022-11-24T07:47:57.150Z,99735.47
2022-11-24T07:51:00.574Z,99727.25
2022-11-24T07:54:03.666Z,99723.69
2022-11-24T07:57:06.144Z,99725.38
2022-11-24T08:00:12.936Z,99726.06
2022-11-24T08:03:16.027Z,99730.38
2022-11-24T08:06:31.712Z,99729.41
2022-11-24T08:09:38.969Z,99732.81
2022-11-24T08:12:43.825Z,99742.50
2022-11-24T08:15:46.778Z,99742.41
2022-11-24T08:18:51.528Z,99752.66
2022-11-24T08:21:54.518Z,99752.28
2022-11-24T08:24:57.029Z,99759.09
2022-11-24T08:28:01.213Z,99757.75
2022-11-24T08:31:10.098Z,99758.38
2022-11-24T08:34:14.754Z,99753.09
2022-11-24T08:37:17.373Z,99764.97
2022-11-24T08:40:20.655Z,99756.19
2022-11-24T08:43:23.147Z,99768.59
2022-11-24T08:46:26.007Z,99765.22
2022-11-24T08:49:28.695Z,99774.50
2022-11-24T08:52:31.874Z,99780.91
2022-11-24T08:55:34.414Z,99781.19
2022-11-24T08:58:38.014Z,99779.44
2022-11-24T09:01:41.865Z,99784.47
2022-11-24T09:04:45.796Z,99778.63
2022-11-24T09:07:48.362Z,99786.38
2022-11-24T09:10:51.579Z,99786.94
2022-11-24T09:13:55.404Z,99791.84
2022-11-24T09:16:58.249Z,99788.97
2022-11-24T09:20:00.812Z,99794.06
2022-11-24T09:23:03.826Z,99784.72
2022-11-24T09:26:12.438Z,99799.50
2022-11-24T09:29:15.394Z,99798.25
2022-11-24T09:32:17.961Z,99799.12
2022-11-24T09:35:21.208Z,99792.25
2022-11-24T09:38:24.276Z,99799.16
2022-11-24T09:41:38.479Z,99786.94
2022-11-24T09:45:04.934Z,99789.22
2022-11-24T09:48:32.090Z,99786.44
2022-11-24T09:51:37.160Z,99792.59
2022-11-24T09:54:52.741Z,99786.34
2022-11-24T09:58:09.642Z,99775.38
2022-11-24T10:01:18.140Z,99780.78
2022-11-24T10:04:26.124Z,99786.41
2022-11-24T10:07:42.666Z,99799.12
2022-11-24T10:11:00.985Z,99788.84
2022-11-24T10:14:26.307Z,99794.94
2022-11-24T10:18:09.303Z,99797.16
2022-11-24T10:21:35.446Z,99804.44
2022-11-24T10:25:00.011Z,99800.31
2022-11-24T10:28:05.094Z,99807.62
2022-11-24T10:31:25.037Z,99793.72
2022-11-24T10:34:34.508Z,99796.53
2022-11-24T10:37:43.702Z,99802.94
2022-11-24T10:41:07.856Z,99801.16
2022-11-24T10:44:15.060Z,99808.09
2022-11-24T10:47:22.888Z,99805.09
2022-11-24T10:50:28.231Z,99814.12
2022-11-24T10:53:31.288Z,99817.06
2022-11-24T10:56:41.729Z,99828.78
2022-11-24T10:59:44.381Z,99820.63
2022-11-24T11:03:09.881Z,99821.16
2022-11-24T11:06:15.086Z,99824.19
2022-11-24T11:09:23.283Z,99832.56
2022-11-24T11:12:45.707Z,99837.59
2022-11-24T11:15:48.909Z,99842.53
2022-11-24T11:18:52.271Z,99834.44
2022-11-24T11:22:15.949Z,99844.72
2022-11-24T11:25:34.025Z,99844.16
2022-11-24T11:28:36.828Z,99854.94
2022-11-24T11:31:41.160Z,99851.09
2022-11-24T11:34:44.603Z,99849.81
2022-11-24T11:37:48.892Z,99870.50
2022-11-24T11:40:52.254Z,99859.44
2022-11-24T11:44:10.848Z,99854.38
2022-11-24T11:47:29.302Z,99867.38
2022-11-24T11:51:06.667Z,99858.09
2022-11-24T11:54:16.834Z,99856.87
2022-11-24T11:57:31.163Z,99856.22
2022-11-24T12:00:39.799Z,99853.94
2022-11-24T12:04:01.421Z,99849.63
2022-11-24T12:07:32.183Z,99858.78
2022-11-24T12:10:42.441Z,99857.03
2022-11-24T12:14:11.226Z,99859.22
2022-11-24T12:17:56.729Z,99872.75
2022-11-24T12:21:26.145Z,99858.97
2022-11-24T12:24:42.844Z,99857.84
2022-11-24T12:27:56.882Z,99869.75
2022-11-24T12:31:02.494Z,99858.91
2022-11-24T12:34:14.717Z,99865.97
2022-11-24T12:37:27.301Z,99879.66
2022-11-24T12:41:25.434Z,99866.81
2022-11-24T12:44:44.224Z,99869.16
2022-11-24T12:47:46.785Z,99875.31
2022-11-24T12:50:53.231Z,99867.38
2022-11-24T12:53:58.240Z,99878.28
2022-11-24T12:57:10.895Z,99878.34
2022-11-24T13:00:21.816Z,99877.75
2022-11-24T13:03:32.394Z,99875.97
2022-11-24T13:06:37.863Z,99877.38
2022-11-24T13:10:19.004Z,99866.59
2022-11-24T13:13:26.296Z,99873.47
2022-11-24T13:16:44.409Z,99883.59
2022-11-24T13:19:51.850Z,99899.81
2022-11-24T13:23:03.506Z,99905.84
2022-11-24T13:26:43.641Z,99897.13
2022-11-24T13:29:48.518Z,99899.47
2022-11-24T13:33:01.038Z,99902.81
2022-11-24T13:36:04.361Z,99894.50
2022-11-24T13:39:17.916Z,99893.19
2022-11-24T13:42:42.365Z,99899.12
2022-11-24T13:45:46.921Z,99903.63
2022-11-24T13:48:49.677Z,99911.06
2022-11-24T13:52:36.265Z,99915.34
2022-11-24T13:55:41.060Z,99908.81
2022-11-24T13:58:55.020Z,99917.31
2022-11-24T14:01:59.003Z,99928.16
2022-11-24T14:05:01.913Z,99921.47
2022-11-24T14:08:07.656Z,99927.69
2022-11-24T14:11:17.004Z,99931.56
2022-11-24T14:14:21.206Z,99928.84
2022-11-24T14:17:28.497Z,99940.84
2022-11-24T14:20:31.246Z,99928.66
2022-11-24T14:23:34.171Z,99931.22
2022-11-24T14:26:39.342Z,99933.50
2022-11-24T14:29:57.387Z,99942.00
2022-11-24T14:33:02.899Z,99943.00
2022-11-24T14:36:17.598Z,99948.31
2022-11-24T14:39:25.520Z,99947.34
2022-11-24T14:42:28.684Z,99957.28
2022-11-24T14:45:32.046Z,99953.53
2022-11-24T14:48:50.424Z,99955.16
2022-11-24T14:52:02.408Z,99966.88
2022-11-24T14:55:21.783Z,99969.94
2022-11-24T14:58:40.472Z,99978.22
2022-11-24T15:01:45.037Z,99982.97
2022-11-24T15:05:03.232Z,99991.19
2022-11-24T15:08:13.460Z,99999.31
2022-11-24T15:11:16.235Z,99998.41
2022-11-24T15:14:44.234Z,100012.75
2022-11-24T15:17:58.268Z,100012.25
2022-11-24T15:21:01.273Z,100009.13
2022-11-24T15:24:18.379Z,100011.84
2022-11-24T15:27:21.094Z,100018.84
2022-11-24T15:30:24.001Z,100012.06
2022-11-24T15:33:27.164Z,100022.34
2022-11-24T15:36:29.636Z,100007.22
2022-11-24T15:39:32.575Z,100014.28
2022-11-24T15:42:35.184Z,100014.09
2022-11-24T15:45:37.905Z,100025.31
2022-11-24T15:48:41.894Z,100027.09
2022-11-24T15:51:45.678Z,100020.41
2022-11-24T15:54:51.542Z,100024.16
2022-11-24T15:57:54.316Z,100019.50
2022-11-24T16:00:57.076Z,100021.34
2022-11-24T16:04:00.741Z,100028.47
2022-11-24T16:07:06.247Z,100030.41
2022-11-24T16:10:21.716Z,100031.62
2022-11-24T16:13:24.286Z,100028.50
2022-11-24T16:16:29.115Z,100037.97
2022-11-24T16:19:31.695Z,100030.97
2022-11-24T16:22:34.530Z,100035.31
2022-11-24T16:25:37.083Z,100042.88
2022-11-24T16:28:40.657Z,100027.47
2022-11-24T16:31:43.557Z,100043.25
2022-11-24T16:34:46.301Z,100040.84
2022-11-24T16:37:48.930Z,100039.25
2022-11-24T16:40:53.008Z,100048.22
2022-11-24T16:43:55.616Z,100048.19
2022-11-24T16:46:58.415Z,100049.22
2022-11-24T16:50:01.486Z,100051.19
2022-11-24T16:53:04.333Z,100054.69
2022-11-24T16:56:08.190Z,100061.72
2022-11-24T16:59:11.899Z,100065.25
2022-11-24T17:02:14.528Z,100073.97
2022-11-24T17:05:17.271Z,100064.41
2022-11-24T17:08:19.796Z,100075.03
2022-11-24T17:11:25.036Z,100076.81
2022-11-24T17:14:27.613Z,100075.41
2022-11-24T17:17:30.489Z,100080.41
